createdAt,value
2018-01-26T00:00:39.024Z,0
2018-01-26T00:01:39.272Z,0
2018-01-26T00:02:39.033Z,0
2018-01-26T00:03:39.046Z,0
2018-01-26T00:04:39.054Z,0
2018-01-26T00:05:39.092Z,0
2018-01-26T00:06:38.819Z,0
2018-01-26T00:07:39.370Z,0
2018-01-26T00:08:38.566Z,0
2018-01-26T00:09:38.845Z,0
2018-01-26T00:10:38.840Z,0
2018-01-26T00:11:38.893Z,0
2018-01-26T00:12:38.849Z,0
2018-01-26T00:13:39.158Z,0
2018-01-26T00:14:39.220Z,0
2018-01-26T00:15:38.908Z,0
2018-01-26T00:16:39.007Z,0
2018-01-26T00:17:39.295Z,0
2018-01-26T00:18:39.590Z,0
2018-01-26T00:19:39.298Z,0
2018-01-26T00:20:39.578Z,0
2018-01-26T00:21:39.320Z,0
2018-01-26T00:22:39.600Z,0
2018-01-26T00:23:39.048Z,0
2018-01-26T00:24:39.659Z,0
2018-01-26T00:25:39.121Z,0
2018-01-26T00:26:39.729Z,0
2018-01-26T00:27:39.750Z,0
2018-01-26T00:28:39.158Z,0
2018-01-26T00:29:39.493Z,0
2018-01-26T00:30:39.786Z,0
2018-01-26T00:31:39.729Z,0
2018-01-26T00:32:39.202Z,0
2018-01-26T00:33:39.765Z,0
2018-01-26T00:34:39.561Z,0
2018-01-26T00:35:39.772Z,0
2018-01-26T00:36:39.275Z,0
2018-01-26T00:37:38.957Z,0
2018-01-26T00:38:39.627Z,0
2018-01-26T00:39:39.566Z,0
2018-01-26T00:40:39.589Z,0
2018-01-26T00:41:39.630Z,0
2018-01-26T00:42:39.890Z,0
2018-01-26T00:43:39.363Z,0
2018-01-26T00:44:39.649Z,0
2018-01-26T00:45:39.373Z,0
2018-01-26T00:46:39.679Z,0
2018-01-26T00:47:39.405Z,0
2018-01-26T00:48:39.189Z,0
2018-01-26T00:49:39.492Z,0
2018-01-26T00:50:40.051Z,0
2018-01-26T00:51:39.808Z,0
2018-01-26T00:52:39.220Z,0
2018-01-26T00:53:39.834Z,0
2018-01-26T00:54:39.498Z,0
2018-01-26T00:55:39.848Z,0
2018-01-26T00:56:39.864Z,0
2018-01-26T00:57:39.567Z,0
2018-01-26T00:58:40.318Z,0
2018-01-26T00:59:39.879Z,0
2018-01-26T01:00:39.311Z,0
2018-01-26T01:01:39.928Z,0
2018-01-26T01:02:39.634Z,0
2018-01-26T01:03:39.947Z,0
2018-01-26T01:04:39.663Z,0
2018-01-26T01:05:40.262Z,0
2018-01-26T01:06:39.729Z,0
2018-01-26T01:07:40.304Z,0
2018-01-26T01:08:39.842Z,0
2018-01-26T01:09:40.023Z,0
2018-01-26T01:10:40.060Z,0
2018-01-26T01:11:40.023Z,0
2018-01-26T01:12:39.801Z,0
2018-01-26T01:13:39.952Z,0
2018-01-26T01:14:39.568Z,0
2018-01-26T01:15:40.411Z,0
2018-01-26T01:16:40.163Z,0
2018-01-26T01:17:40.186Z,0
2018-01-26T01:18:40.193Z,0
2018-01-26T01:19:40.161Z,0
2018-01-26T01:20:40.200Z,0
2018-01-26T01:21:40.160Z,0
2018-01-26T01:22:39.916Z,0
2018-01-26T01:23:39.642Z,0
2018-01-26T01:24:40.249Z,0
2018-01-26T01:25:40.299Z,0
2018-01-26T01:26:39.976Z,0
2018-01-26T01:27:40.262Z,0
2018-01-26T01:28:40.272Z,0
2018-01-26T01:29:40.023Z,0
2018-01-26T01:30:40.648Z,0
2018-01-26T01:31:40.652Z,0
2018-01-26T01:32:40.383Z,0
2018-01-26T01:33:40.694Z,0
2018-01-26T01:34:40.408Z,0
2018-01-26T01:35:40.151Z,0
2018-01-26T01:36:40.485Z,0
2018-01-26T01:37:40.430Z,0
2018-01-26T01:38:40.627Z,0
2018-01-26T01:39:40.786Z,0
2018-01-26T01:40:40.456Z,0
2018-01-26T01:41:40.852Z,0
2018-01-26T01:42:40.236Z,0
2018-01-26T01:43:40.560Z,0
2018-01-26T01:44:40.563Z,0
2018-01-26T01:45:39.990Z,0
2018-01-26T01:46:40.585Z,0
2018-01-26T01:47:40.859Z,0
2018-01-26T01:48:40.303Z,0
2018-01-26T01:49:40.058Z,0
2018-01-26T01:50:40.344Z,0
2018-01-26T01:51:40.643Z,0
2018-01-26T01:52:40.122Z,0
2018-01-26T01:53:40.752Z,0
2018-01-26T01:54:40.965Z,0
2018-01-26T01:55:40.719Z,0
2018-01-26T01:56:40.433Z,0
2018-01-26T01:57:41.039Z,0
2018-01-26T01:58:41.066Z,0
2018-01-26T01:59:40.509Z,0
2018-01-26T02:00:41.059Z,0
2018-01-26T02:01:40.898Z,0
2018-01-26T02:02:40.519Z,0
2018-01-26T02:03:40.883Z,0
2018-01-26T02:04:40.778Z,0
2018-01-26T02:05:40.634Z,0
2018-01-26T02:06:41.194Z,0
2018-01-26T02:07:41.151Z,0
2018-01-26T02:08:40.319Z,0
2018-01-26T02:09:41.389Z,0
2018-01-26T02:10:40.635Z,0
2018-01-26T02:11:41.252Z,0
2018-01-26T02:12:40.410Z,0
2018-01-26T02:13:41.276Z,0
2018-01-26T02:14:40.741Z,0
2018-01-26T02:15:40.682Z,0
2018-01-26T02:16:41.777Z,0
2018-01-26T02:17:41.418Z,0
2018-01-26T02:18:40.757Z,0
2018-01-26T02:19:40.868Z,0
2018-01-26T02:20:40.812Z,0
2018-01-26T02:21:41.123Z,0
2018-01-26T02:22:40.578Z,0
2018-01-26T02:23:40.798Z,0
2018-01-26T02:24:40.928Z,0
2018-01-26T02:25:41.387Z,0
2018-01-26T02:26:41.155Z,0
2018-01-26T02:27:41.204Z,0
2018-01-26T02:28:41.207Z,0
2018-01-26T02:29:41.236Z,0
2018-01-26T02:30:41.508Z,0
2018-01-26T02:31:41.250Z,0
2018-01-26T02:32:41.266Z,0
2018-01-26T02:33:41.574Z,0
2018-01-26T02:34:41.147Z,0
2018-01-26T02:35:41.574Z,0
2018-01-26T02:36:41.337Z,0
2018-01-26T02:37:41.288Z,0
2018-01-26T02:38:41.312Z,0
2018-01-26T02:39:41.654Z,0
2018-01-26T02:40:41.331Z,0
2018-01-26T02:41:41.122Z,0
2018-01-26T02:42:41.710Z,0
2018-01-26T02:43:41.432Z,0
2018-01-26T02:44:41.485Z,0
2018-01-26T02:45:41.748Z,0
2018-01-26T02:46:41.173Z,0
2018-01-26T02:47:41.505Z,0
2018-01-26T02:48:41.564Z,0
2018-01-26T02:49:41.547Z,0
2018-01-26T02:50:41.807Z,0
2018-01-26T02:51:41.535Z,0
2018-01-26T02:52:41.611Z,0
2018-01-26T02:53:41.868Z,0
2018-01-26T02:54:41.020Z,0
2018-01-26T02:55:41.282Z,0
2018-01-26T02:56:41.358Z,0
2018-01-26T02:57:41.103Z,0
2018-01-26T02:58:41.911Z,0
2018-01-26T02:59:41.357Z,0
2018-01-26T03:00:41.397Z,0
2018-01-26T03:01:41.963Z,0
2018-01-26T03:02:41.401Z,0
2018-01-26T03:03:41.442Z,0
2018-01-26T03:04:42.117Z,0
2018-01-26T03:05:41.213Z,0
2018-01-26T03:06:41.470Z,0
2018-01-26T03:07:41.460Z,0
2018-01-26T03:08:42.073Z,0
2018-01-26T03:09:41.506Z,0
2018-01-26T03:10:41.800Z,0
2018-01-26T03:11:42.144Z,0
2018-01-26T03:12:41.801Z,0
2018-01-26T03:13:41.556Z,0
2018-01-26T03:14:42.186Z,0
2018-01-26T03:15:41.913Z,0
2018-01-26T03:16:41.914Z,0
2018-01-26T03:17:41.608Z,0
2018-01-26T03:18:41.624Z,0
2018-01-26T03:19:41.637Z,0
2018-01-26T03:20:41.725Z,0
2018-01-26T03:21:42.027Z,0
2018-01-26T03:22:41.757Z,0
2018-01-26T03:23:41.723Z,0
2018-01-26T03:24:42.013Z,0
2018-01-26T03:25:42.014Z,0
2018-01-26T03:26:41.520Z,0
2018-01-26T03:27:42.081Z,0
2018-01-26T03:28:41.823Z,0
2018-01-26T03:29:42.406Z,0
2018-01-26T03:30:42.129Z,0
2018-01-26T03:31:42.141Z,0
2018-01-26T03:32:42.162Z,0
2018-01-26T03:33:42.164Z,0
2018-01-26T03:34:42.496Z,0
2018-01-26T03:35:42.300Z,0
2018-01-26T03:36:42.220Z,0
2018-01-26T03:37:41.924Z,0
2018-01-26T03:38:41.654Z,0
2018-01-26T03:39:41.997Z,0
2018-01-26T03:40:42.531Z,0
2018-01-26T03:41:41.988Z,0
2018-01-26T03:42:42.630Z,0
2018-01-26T03:43:42.337Z,0
2018-01-26T03:44:42.321Z,0
2018-01-26T03:45:42.070Z,0
2018-01-26T03:46:42.371Z,0
2018-01-26T03:47:42.085Z,0
2018-01-26T03:48:41.809Z,0
2018-01-26T03:49:42.131Z,0
2018-01-26T03:50:42.158Z,0
2018-01-26T03:51:41.886Z,0
2018-01-26T03:52:42.475Z,0
2018-01-26T03:53:42.756Z,0
2018-01-26T03:54:42.767Z,0
2018-01-26T03:55:42.529Z,0
2018-01-26T03:56:42.498Z,0
2018-01-26T03:57:42.514Z,0
2018-01-26T03:58:42.224Z,0
2018-01-26T03:59:41.928Z,0
2018-01-26T04:00:41.955Z,0
2018-01-26T04:01:42.257Z,0
2018-01-26T04:02:42.861Z,0
2018-01-26T04:03:42.564Z,0
2018-01-26T04:04:42.603Z,0
2018-01-26T04:05:42.515Z,0
2018-01-26T04:06:42.350Z,0
2018-01-26T04:07:42.622Z,0
2018-01-26T04:08:42.394Z,0
2018-01-26T04:09:42.110Z,0
2018-01-26T04:10:42.681Z,0
2018-01-26T04:11:42.437Z,0
2018-01-26T04:12:42.726Z,0
2018-01-26T04:13:42.743Z,0
2018-01-26T04:14:42.456Z,0
2018-01-26T04:15:42.814Z,0
2018-01-26T04:16:42.487Z,0
2018-01-26T04:17:42.522Z,0
2018-01-26T04:18:43.107Z,0
2018-01-26T04:19:43.117Z,0
2018-01-26T04:20:43.125Z,0
2018-01-26T04:21:43.151Z,0
2018-01-26T04:22:43.112Z,0
2018-01-26T04:23:43.190Z,0
2018-01-26T04:24:42.909Z,0
2018-01-26T04:25:42.708Z,0
2018-01-26T04:26:42.629Z,0
2018-01-26T04:27:43.186Z,0
2018-01-26T04:28:43.252Z,0
2018-01-26T04:29:43.009Z,0
2018-01-26T04:30:42.762Z,0
2018-01-26T04:31:42.739Z,0
2018-01-26T04:32:43.023Z,0
2018-01-26T04:33:42.779Z,0
2018-01-26T04:34:43.060Z,0
2018-01-26T04:35:42.912Z,0
2018-01-26T04:36:43.123Z,0
2018-01-26T04:37:42.798Z,0
2018-01-26T04:38:42.818Z,0
2018-01-26T04:39:43.165Z,0
2018-01-26T04:40:43.441Z,0
2018-01-26T04:41:42.861Z,0
2018-01-26T04:42:42.894Z,0
2018-01-26T04:43:43.421Z,0
2018-01-26T04:44:42.914Z,0
2018-01-26T04:45:42.901Z,0
2018-01-26T04:46:43.553Z,0
2018-01-26T04:47:43.250Z,0
2018-01-26T04:48:43.003Z,0
2018-01-26T04:49:43.539Z,0
2018-01-26T04:50:43.002Z,0
2018-01-26T04:51:43.049Z,0
2018-01-26T04:52:43.308Z,0
2018-01-26T04:53:43.624Z,0
2018-01-26T04:54:43.385Z,0
2018-01-26T04:55:43.369Z,0
2018-01-26T04:56:43.400Z,0
2018-01-26T04:57:43.093Z,0
2018-01-26T04:58:43.686Z,0
2018-01-26T04:59:43.136Z,0
2018-01-26T05:00:43.128Z,0
2018-01-26T05:01:43.451Z,0
2018-01-26T05:02:43.467Z,0
2018-01-26T05:03:43.211Z,0
2018-01-26T05:04:43.816Z,0
2018-01-26T05:05:43.369Z,0
2018-01-26T05:06:43.530Z,0
2018-01-26T05:07:43.214Z,0
2018-01-26T05:08:43.524Z,0
2018-01-26T05:09:43.589Z,0
2018-01-26T05:10:43.286Z,0
2018-01-26T05:11:43.600Z,0
2018-01-26T05:12:43.898Z,0
2018-01-26T05:13:43.870Z,0
2018-01-26T05:14:43.307Z,0
2018-01-26T05:15:43.364Z,0
2018-01-26T05:16:43.647Z,0
2018-01-26T05:17:43.398Z,0
2018-01-26T05:18:43.404Z,0
2018-01-26T05:19:43.101Z,0
2018-01-26T05:20:44.022Z,0
2018-01-26T05:21:43.697Z,0
2018-01-26T05:22:43.760Z,0
2018-01-26T05:23:43.467Z,0
2018-01-26T05:24:43.440Z,0
2018-01-26T05:25:44.137Z,0
2018-01-26T05:26:44.109Z,0
2018-01-26T05:27:43.773Z,0
2018-01-26T05:28:43.833Z,0
2018-01-26T05:29:43.274Z,0
2018-01-26T05:30:43.870Z,0
2018-01-26T05:31:43.828Z,0
2018-01-26T05:32:43.896Z,0
2018-01-26T05:33:44.228Z,0
2018-01-26T05:34:43.908Z,0
2018-01-26T05:35:43.927Z,0
2018-01-26T05:36:43.945Z,0
2018-01-26T05:37:44.183Z,0
2018-01-26T05:38:43.963Z,0
2018-01-26T05:39:43.975Z,0
2018-01-26T05:40:44.109Z,0
2018-01-26T05:41:44.034Z,0
2018-01-26T05:42:44.001Z,0
2018-01-26T05:43:44.016Z,0
2018-01-26T05:44:43.727Z,0
2018-01-26T05:45:44.195Z,0
2018-01-26T05:46:44.406Z,0
2018-01-26T05:47:43.533Z,0
2018-01-26T05:48:43.536Z,0
2018-01-26T05:49:43.918Z,0
2018-01-26T05:50:43.846Z,0
2018-01-26T05:51:44.169Z,0
2018-01-26T05:52:43.869Z,0
2018-01-26T05:53:44.190Z,0
2018-01-26T05:54:43.874Z,0
2018-01-26T05:55:43.630Z,0
2018-01-26T05:56:44.038Z,0
2018-01-26T05:57:44.686Z,0
2018-01-26T05:58:44.011Z,0
2018-01-26T05:59:44.729Z,0
2018-01-26T06:00:44.080Z,0
2018-01-26T06:01:44.577Z,0
2018-01-26T06:02:44.265Z,0
2018-01-26T06:03:44.278Z,0
2018-01-26T06:04:43.764Z,0
2018-01-26T06:05:44.074Z,0
2018-01-26T06:06:44.067Z,0
2018-01-26T06:07:44.433Z,0
2018-01-26T06:08:44.708Z,0
2018-01-26T06:09:43.825Z,0
2018-01-26T06:10:44.707Z,0
2018-01-26T06:11:44.710Z,0
2018-01-26T06:12:44.428Z,0
2018-01-26T06:13:44.177Z,0
2018-01-26T06:14:44.540Z,0
2018-01-26T06:15:43.894Z,0
2018-01-26T06:16:44.542Z,0
2018-01-26T06:17:44.236Z,0
2018-01-26T06:18:44.814Z,0
2018-01-26T06:19:44.870Z,0
2018-01-26T06:20:44.306Z,0
2018-01-26T06:21:44.280Z,0
2018-01-26T06:22:44.615Z,0
2018-01-26T06:23:44.669Z,0
2018-01-26T06:24:44.314Z,0
2018-01-26T06:25:44.686Z,0
2018-01-26T06:26:44.929Z,0
2018-01-26T06:27:44.666Z,0
2018-01-26T06:28:44.995Z,0
2018-01-26T06:29:44.148Z,0
2018-01-26T06:30:44.475Z,0
2018-01-26T06:31:44.412Z,0
2018-01-26T06:32:44.742Z,0
2018-01-26T06:33:44.483Z,0
2018-01-26T06:34:45.086Z,0
2018-01-26T06:35:44.480Z,0
2018-01-26T06:36:44.790Z,0
2018-01-26T06:37:44.832Z,0
2018-01-26T06:38:44.869Z,0
2018-01-26T06:39:44.798Z,0
2018-01-26T06:40:44.848Z,0
2018-01-26T06:41:45.508Z,0
2018-01-26T06:42:44.615Z,0
2018-01-26T06:43:45.207Z,0
2018-01-26T06:44:45.259Z,0
2018-01-26T06:45:44.666Z,0
2018-01-26T06:46:44.964Z,4
2018-01-26T06:47:44.695Z,4
2018-01-26T06:48:45.002Z,4
2018-01-26T06:49:45.003Z,0
2018-01-26T06:50:45.048Z,0
2018-01-26T06:51:44.715Z,4
2018-01-26T06:52:45.018Z,4
2018-01-26T06:53:44.799Z,8
2018-01-26T06:54:45.344Z,4
2018-01-26T06:55:44.756Z,8
2018-01-26T06:56:44.842Z,8
2018-01-26T06:57:45.088Z,8
2018-01-26T06:58:45.150Z,8
2018-01-26T06:59:44.557Z,12
2018-01-26T07:00:45.190Z,12
2018-01-26T07:01:45.488Z,12
2018-01-26T07:02:45.409Z,12
2018-01-26T07:03:45.516Z,16
2018-01-26T07:04:45.393Z,12
2018-01-26T07:05:44.920Z,16
2018-01-26T07:06:44.957Z,16
2018-01-26T07:07:45.229Z,20
2018-01-26T07:08:45.282Z,20
2018-01-26T07:09:45.556Z,20
2018-01-26T07:10:45.009Z,24
2018-01-26T07:11:45.028Z,24
2018-01-26T07:12:45.639Z,28
2018-01-26T07:13:45.045Z,28
2018-01-26T07:14:45.064Z,28
2018-01-26T07:15:45.074Z,32
2018-01-26T07:16:45.622Z,32
2018-01-26T07:17:45.408Z,32
2018-01-26T07:18:45.120Z,36
2018-01-26T07:19:45.690Z,40
2018-01-26T07:20:45.737Z,44
2018-01-26T07:21:45.707Z,48
2018-01-26T07:22:45.441Z,48
2018-01-26T07:23:45.751Z,48
2018-01-26T07:24:45.230Z,56
2018-01-26T07:25:45.237Z,60
2018-01-26T07:26:45.209Z,60
2018-01-26T07:27:45.567Z,64
2018-01-26T07:28:45.544Z,64
2018-01-26T07:29:45.306Z,64
2018-01-26T07:30:45.606Z,64
2018-01-26T07:31:45.572Z,64
2018-01-26T07:32:45.597Z,68
2018-01-26T07:33:45.951Z,72
2018-01-26T07:34:45.355Z,76
2018-01-26T07:35:45.406Z,80
2018-01-26T07:36:45.722Z,80
2018-01-26T07:37:45.656Z,88
2018-01-26T07:38:45.952Z,84
2018-01-26T07:39:45.415Z,88
2018-01-26T07:40:45.390Z,100
2018-01-26T07:41:45.981Z,112
2018-01-26T07:42:45.737Z,100
2018-01-26T07:43:45.485Z,104
2018-01-26T07:44:45.184Z,116
2018-01-26T07:45:45.507Z,116
2018-01-26T07:46:45.224Z,120
2018-01-26T07:47:45.848Z,108
2018-01-26T07:48:45.877Z,116
2018-01-26T07:49:45.593Z,112
2018-01-26T07:50:45.598Z,112
2018-01-26T07:51:45.854Z,116
2018-01-26T07:52:45.921Z,120
2018-01-26T07:53:45.890Z,116
2018-01-26T07:54:45.704Z,124
2018-01-26T07:55:45.905Z,124
2018-01-26T07:56:46.255Z,128
2018-01-26T07:57:45.973Z,116
2018-01-26T07:58:45.681Z,124
2018-01-26T07:59:45.689Z,108
2018-01-26T08:00:45.716Z,116
2018-01-26T08:01:45.729Z,116
2018-01-26T08:02:46.045Z,116
2018-01-26T08:03:46.069Z,124
2018-01-26T08:04:46.050Z,124
2018-01-26T08:05:46.054Z,124
2018-01-26T08:06:45.796Z,120
2018-01-26T08:07:46.027Z,120
2018-01-26T08:08:45.817Z,132
2018-01-26T08:09:45.893Z,140
2018-01-26T08:10:46.155Z,152
2018-01-26T08:11:45.867Z,148
2018-01-26T08:12:46.262Z,160
2018-01-26T08:13:46.202Z,160
2018-01-26T08:14:46.187Z,184
2018-01-26T08:15:46.234Z,196
2018-01-26T08:16:46.214Z,192
2018-01-26T08:17:46.051Z,228
2018-01-26T08:18:46.530Z,256
2018-01-26T08:19:45.943Z,296
2018-01-26T08:20:46.316Z,320
2018-01-26T08:21:46.029Z,296
2018-01-26T08:22:46.329Z,300
2018-01-26T08:23:46.059Z,304
2018-01-26T08:24:46.362Z,308
2018-01-26T08:25:46.621Z,300
2018-01-26T08:26:46.342Z,296
2018-01-26T08:27:46.097Z,252
2018-01-26T08:28:46.713Z,248
2018-01-26T08:29:46.366Z,252
2018-01-26T08:30:46.476Z,212
2018-01-26T08:31:45.856Z,200
2018-01-26T08:32:46.492Z,184
2018-01-26T08:33:46.479Z,208
2018-01-26T08:34:46.242Z,280
2018-01-26T08:35:46.796Z,312
2018-01-26T08:36:46.238Z,296
2018-01-26T08:37:46.274Z,232
2018-01-26T08:38:46.531Z,264
2018-01-26T08:39:45.970Z,280
2018-01-26T08:40:46.342Z,252
2018-01-26T08:41:46.826Z,376
2018-01-26T08:42:46.586Z,336
2018-01-26T08:43:46.606Z,280
2018-01-26T08:44:46.936Z,288
2018-01-26T08:45:46.595Z,276
2018-01-26T08:46:46.360Z,244
2018-01-26T08:47:46.247Z,304
2018-01-26T08:48:46.702Z,288
2018-01-26T08:49:46.408Z,316
2018-01-26T08:50:46.986Z,452
2018-01-26T08:51:46.735Z,376
2018-01-26T08:52:46.530Z,356
2018-01-26T08:53:47.062Z,304
2018-01-26T08:54:46.739Z,316
2018-01-26T08:55:46.531Z,280
2018-01-26T08:56:46.537Z,328
2018-01-26T08:57:46.827Z,316
2018-01-26T08:58:46.502Z,284
2018-01-26T08:59:46.836Z,288
2018-01-26T09:00:46.303Z,296
2018-01-26T09:01:46.900Z,320
2018-01-26T09:02:47.162Z,308
2018-01-26T09:03:46.629Z,332
2018-01-26T09:04:46.926Z,360
2018-01-26T09:05:46.916Z,340
2018-01-26T09:06:46.680Z,336
2018-01-26T09:07:46.963Z,348
2018-01-26T09:08:46.405Z,340
2018-01-26T09:09:46.979Z,288
2018-01-26T09:10:47.020Z,336
2018-01-26T09:11:47.005Z,304
2018-01-26T09:12:46.749Z,268
2018-01-26T09:13:47.046Z,268
2018-01-26T09:14:47.326Z,296
2018-01-26T09:15:47.088Z,268
2018-01-26T09:16:47.052Z,280
2018-01-26T09:17:46.910Z,272
2018-01-26T09:18:47.376Z,284
2018-01-26T09:19:47.430Z,268
2018-01-26T09:20:47.413Z,264
2018-01-26T09:21:47.164Z,272
2018-01-26T09:22:47.516Z,344
2018-01-26T09:23:47.143Z,340
2018-01-26T09:24:46.637Z,380
2018-01-26T09:25:47.276Z,424
2018-01-26T09:26:47.227Z,436
2018-01-26T09:27:47.238Z,376
2018-01-26T09:28:47.559Z,504
2018-01-26T09:29:47.287Z,504
2018-01-26T09:30:47.016Z,436
2018-01-26T09:31:47.308Z,432
2018-01-26T09:32:46.783Z,448
2018-01-26T09:33:47.088Z,480
2018-01-26T09:34:47.350Z,580
2018-01-26T09:35:47.062Z,516
2018-01-26T09:36:47.080Z,460
2018-01-26T09:37:47.289Z,432
2018-01-26T09:38:47.396Z,484
2018-01-26T09:39:47.419Z,484
2018-01-26T09:40:46.882Z,456
2018-01-26T09:41:46.874Z,420
2018-01-26T09:42:47.175Z,460
2018-01-26T09:43:47.490Z,460
2018-01-26T09:44:47.500Z,400
2018-01-26T09:45:47.796Z,348
2018-01-26T09:46:47.473Z,344
2018-01-26T09:47:47.235Z,348
2018-01-26T09:48:47.259Z,280
2018-01-26T09:49:47.572Z,304
2018-01-26T09:50:47.616Z,252
2018-01-26T09:51:47.589Z,240
2018-01-26T09:52:47.320Z,296
2018-01-26T09:53:47.385Z,272
2018-01-26T09:54:47.033Z,304
2018-01-26T09:55:47.652Z,296
2018-01-26T09:56:47.681Z,344
2018-01-26T09:57:47.952Z,504
2018-01-26T09:58:47.754Z,516
2018-01-26T09:59:47.375Z,444
2018-01-26T10:00:48.027Z,424
2018-01-26T10:01:47.709Z,456
2018-01-26T10:02:47.698Z,468
2018-01-26T10:03:47.522Z,492
2018-01-26T10:04:47.845Z,484
2018-01-26T10:05:48.071Z,400
2018-01-26T10:06:47.814Z,408
2018-01-26T10:07:47.804Z,396
2018-01-26T10:08:47.711Z,576
2018-01-26T10:09:47.277Z,628
2018-01-26T10:10:47.288Z,612
2018-01-26T10:11:47.622Z,612
2018-01-26T10:12:47.883Z,612
2018-01-26T10:13:47.400Z,624
2018-01-26T10:14:47.619Z,608
2018-01-26T10:15:47.934Z,600
2018-01-26T10:16:47.995Z,560
2018-01-26T10:17:47.666Z,540
2018-01-26T10:18:48.120Z,560
2018-01-26T10:19:48.019Z,608
2018-01-26T10:20:48.062Z,548
2018-01-26T10:21:48.255Z,492
2018-01-26T10:22:48.087Z,484
2018-01-26T10:23:48.073Z,460
2018-01-26T10:24:47.794Z,432
2018-01-26T10:25:47.774Z,516
2018-01-26T10:26:47.509Z,464
2018-01-26T10:27:47.779Z,388
2018-01-26T10:28:48.147Z,472
2018-01-26T10:29:48.167Z,536
2018-01-26T10:30:48.495Z,524
2018-01-26T10:31:48.175Z,464
2018-01-26T10:32:48.173Z,440
2018-01-26T10:33:47.903Z,416
2018-01-26T10:34:48.525Z,488
2018-01-26T10:35:47.682Z,592
2018-01-26T10:36:48.537Z,548
2018-01-26T10:37:48.036Z,396
2018-01-26T10:38:48.569Z,408
2018-01-26T10:39:48.322Z,376
2018-01-26T10:40:48.036Z,308
2018-01-26T10:41:48.074Z,324
2018-01-26T10:42:48.031Z,324
2018-01-26T10:43:48.329Z,320
2018-01-26T10:44:48.636Z,308
2018-01-26T10:45:48.121Z,336
2018-01-26T10:46:48.385Z,280
2018-01-26T10:47:48.148Z,240
2018-01-26T10:48:48.372Z,252
2018-01-26T10:49:47.889Z,296
2018-01-26T10:50:48.448Z,376
2018-01-26T10:51:48.505Z,336
2018-01-26T10:52:47.913Z,428
2018-01-26T10:53:47.923Z,456
2018-01-26T10:54:48.529Z,648
2018-01-26T10:55:48.483Z,772
2018-01-26T10:56:48.566Z,732
2018-01-26T10:57:48.510Z,716
2018-01-26T10:58:48.525Z,736
2018-01-26T10:59:48.936Z,724
2018-01-26T11:00:48.339Z,716
2018-01-26T11:01:48.628Z,752
2018-01-26T11:02:48.624Z,668
2018-01-26T11:03:48.371Z,640
2018-01-26T11:04:48.351Z,604
2018-01-26T11:05:48.657Z,556
2018-01-26T11:06:48.379Z,616
2018-01-26T11:07:49.010Z,620
2018-01-26T11:08:48.438Z,648
2018-01-26T11:09:48.674Z,612
2018-01-26T11:10:48.722Z,592
2018-01-26T11:11:48.791Z,580
2018-01-26T11:12:48.772Z,616
2018-01-26T11:13:48.505Z,628
2018-01-26T11:14:48.240Z,624
2018-01-26T11:15:48.524Z,640
2018-01-26T11:16:48.816Z,612
2018-01-26T11:17:49.096Z,600
2018-01-26T11:18:48.816Z,608
2018-01-26T11:19:49.037Z,632
2018-01-26T11:20:48.640Z,620
2018-01-26T11:21:48.934Z,596
2018-01-26T11:22:49.145Z,644
2018-01-26T11:23:48.991Z,704
2018-01-26T11:24:48.948Z,716
2018-01-26T11:25:49.268Z,636
2018-01-26T11:26:48.730Z,568
2018-01-26T11:27:48.669Z,732
2018-01-26T11:28:48.977Z,804
2018-01-26T11:29:48.890Z,548
2018-01-26T11:30:49.034Z,520
2018-01-26T11:31:49.093Z,576
2018-01-26T11:32:48.517Z,648
2018-01-26T11:33:49.049Z,604
2018-01-26T11:34:48.808Z,608
2018-01-26T11:35:49.106Z,676
2018-01-26T11:36:49.074Z,672
2018-01-26T11:37:49.183Z,648
2018-01-26T11:38:48.555Z,632
2018-01-26T11:39:49.118Z,640
2018-01-26T11:40:48.948Z,672
2018-01-26T11:41:49.548Z,680
2018-01-26T11:42:49.541Z,672
2018-01-26T11:43:49.527Z,640
2018-01-26T11:44:48.967Z,608
2018-01-26T11:45:48.953Z,596
2018-01-26T11:46:49.251Z,584
2018-01-26T11:47:49.293Z,564
2018-01-26T11:48:49.339Z,568
2018-01-26T11:49:48.901Z,592
2018-01-26T11:50:49.322Z,612
2018-01-26T11:51:49.585Z,612
2018-01-26T11:52:49.330Z,660
2018-01-26T11:53:49.367Z,736
2018-01-26T11:54:49.112Z,820
2018-01-26T11:55:49.374Z,876
2018-01-26T11:56:49.397Z,920
2018-01-26T11:57:49.169Z,940
2018-01-26T11:58:49.447Z,892
2018-01-26T11:59:49.157Z,844
2018-01-26T12:00:49.722Z,744
2018-01-26T12:01:49.456Z,760
2018-01-26T12:02:49.504Z,924
2018-01-26T12:03:49.490Z,1012
2018-01-26T12:04:49.333Z,1036
2018-01-26T12:05:49.269Z,1040
2018-01-26T12:06:49.835Z,1004
2018-01-26T12:07:49.575Z,880
2018-01-26T12:08:49.311Z,736
2018-01-26T12:09:49.628Z,624
2018-01-26T12:10:49.653Z,580
2018-01-26T12:11:49.107Z,584
2018-01-26T12:12:49.354Z,584
2018-01-26T12:13:49.629Z,540
2018-01-26T12:14:49.479Z,468
2018-01-26T12:15:49.712Z,420
2018-01-26T12:16:49.431Z,380
2018-01-26T12:17:49.708Z,352
2018-01-26T12:18:49.187Z,372
2018-01-26T12:19:50.066Z,356
2018-01-26T12:20:49.471Z,368
2018-01-26T12:21:49.749Z,384
2018-01-26T12:22:49.799Z,348
2018-01-26T12:23:49.844Z,316
2018-01-26T12:24:49.838Z,296
2018-01-26T12:25:49.600Z,292
2018-01-26T12:26:50.200Z,300
2018-01-26T12:27:49.617Z,272
2018-01-26T12:28:49.899Z,256
2018-01-26T12:29:49.612Z,280
2018-01-26T12:30:49.911Z,292
2018-01-26T12:31:49.674Z,300
2018-01-26T12:32:49.665Z,312
2018-01-26T12:33:50.061Z,368
2018-01-26T12:34:50.299Z,384
2018-01-26T12:35:49.675Z,420
2018-01-26T12:36:49.745Z,512
2018-01-26T12:37:49.424Z,532
2018-01-26T12:38:50.075Z,520
2018-01-26T12:39:50.158Z,528
2018-01-26T12:40:50.473Z,544
2018-01-26T12:41:50.096Z,560
2018-01-26T12:42:50.380Z,552
2018-01-26T12:43:50.138Z,532
2018-01-26T12:44:50.585Z,476
2018-01-26T12:45:50.134Z,444
2018-01-26T12:46:50.210Z,396
2018-01-26T12:47:50.179Z,312
2018-01-26T12:48:49.905Z,260
2018-01-26T12:49:50.232Z,224
2018-01-26T12:50:50.273Z,204
2018-01-26T12:51:49.935Z,192
2018-01-26T12:52:50.014Z,176
2018-01-26T12:53:50.231Z,172
2018-01-26T12:54:50.277Z,180
2018-01-26T12:55:50.576Z,192
2018-01-26T12:56:49.728Z,172
2018-01-26T12:57:50.004Z,156
2018-01-26T12:58:50.643Z,140
2018-01-26T12:59:50.639Z,184
2018-01-26T13:00:50.420Z,216
2018-01-26T13:01:50.672Z,204
2018-01-26T13:02:50.436Z,200
2018-01-26T13:03:50.116Z,204
2018-01-26T13:04:50.169Z,176
2018-01-26T13:05:50.174Z,140
2018-01-26T13:06:50.509Z,132
2018-01-26T13:07:49.893Z,160
2018-01-26T13:08:50.468Z,180
2018-01-26T13:09:50.504Z,200
2018-01-26T13:10:50.477Z,228
2018-01-26T13:11:50.255Z,256
2018-01-26T13:12:50.801Z,276
2018-01-26T13:13:50.937Z,292
2018-01-26T13:14:50.317Z,324
2018-01-26T13:15:50.273Z,360
2018-01-26T13:16:50.332Z,412
2018-01-26T13:17:50.342Z,448
2018-01-26T13:18:50.064Z,440
2018-01-26T13:19:51.066Z,352
2018-01-26T13:20:50.409Z,272
2018-01-26T13:21:50.703Z,276
2018-01-26T13:22:50.715Z,344
2018-01-26T13:23:50.704Z,364
2018-01-26T13:24:50.434Z,316
2018-01-26T13:25:50.759Z,280
2018-01-26T13:26:50.177Z,276
2018-01-26T13:27:51.054Z,240
2018-01-26T13:28:50.486Z,208
2018-01-26T13:29:50.560Z,192
2018-01-26T13:30:50.565Z,224
2018-01-26T13:31:50.538Z,204
2018-01-26T13:32:50.560Z,168
2018-01-26T13:33:50.905Z,148
2018-01-26T13:34:51.187Z,120
2018-01-26T13:35:50.911Z,112
2018-01-26T13:36:50.932Z,120
2018-01-26T13:37:50.649Z,132
2018-01-26T13:38:50.949Z,124
2018-01-26T13:39:51.350Z,116
2018-01-26T13:40:50.730Z,112
2018-01-26T13:41:50.408Z,104
2018-01-26T13:42:51.279Z,124
2018-01-26T13:43:50.751Z,196
2018-01-26T13:44:50.761Z,296
2018-01-26T13:45:51.382Z,344
2018-01-26T13:46:51.041Z,352
2018-01-26T13:47:50.506Z,312
2018-01-26T13:48:50.815Z,296
2018-01-26T13:49:51.120Z,304
2018-01-26T13:50:50.884Z,332
2018-01-26T13:51:51.159Z,296
2018-01-26T13:52:50.896Z,244
2018-01-26T13:53:51.193Z,252
2018-01-26T13:54:51.162Z,260
2018-01-26T13:55:51.242Z,256
2018-01-26T13:56:51.478Z,248
2018-01-26T13:57:50.968Z,252
2018-01-26T13:58:50.910Z,268
2018-01-26T13:59:50.694Z,276
2018-01-26T14:00:51.401Z,256
2018-01-26T14:01:50.979Z,264
2018-01-26T14:02:51.570Z,320
2018-01-26T14:03:51.010Z,372
2018-01-26T14:04:51.179Z,412
2018-01-26T14:05:51.293Z,376
2018-01-26T14:06:51.369Z,360
2018-01-26T14:07:51.697Z,464
2018-01-26T14:08:51.110Z,656
2018-01-26T14:09:51.067Z,616
2018-01-26T14:10:51.128Z,608
2018-01-26T14:11:50.899Z,572
2018-01-26T14:12:51.458Z,556
2018-01-26T14:13:51.741Z,596
2018-01-26T14:14:51.485Z,568
2018-01-26T14:15:51.215Z,580
2018-01-26T14:16:51.786Z,652